sensor_id;sensor_type;location;lat;lon;timestamp;pressure;altitude;pressure_sealevel;temperature;humidity
27358;BME280;14831;50.474;7.616;2023-05-14T00:01:24;98330;;;8.6;93.7
27358;BME280;14831;50.474;7.616;2023-05-14T00:06:24;98340;;;8.9;91.3
27358;BME280;14831;50.474;7.616;2023-05-14T00:11:24;98330;;;9.0;90.5
27358;BME280;14831;50.474;7.616;2023-05-14T00:16:24;98330;;;9.0;89.4
27358;BME280;14831;50.474;7.616;2023-05-14T00:21:24;98310;;;9.0;89.4
27358;BME280;14831;50.474;7.616;2023-05-14T00:26:24;98310;;;9.1;88.2
27358;BME280;14831;50.474;7.616;2023-05-14T00:31:24;98320;;;9.1;87.8
27358;BME280;14831;50.474;7.616;2023-05-14T00:36:24;98310;;;9.4;86.9
27358;BME280;14831;50.474;7.616;2023-05-14T00:41:24;98300;;;9.5;85.9
27358;BME280;14831;50.474;7.616;2023-05-14T00:46:24;98300;;;9.5;86.0
27358;BME280;14831;50.474;7.616;2023-05-14T00:51:24;98300;;;9.4;86.4
27358;BME280;14831;50.474;7.616;2023-05-14T00:56:24;98300;;;9.2;86.9
27358;BME280;14831;50.474;7.616;2023-05-14T01:01:24;98280;;;9.2;87.2
27358;BME280;14831;50.474;7.616;2023-05-14T01:06:25;98280;;;9.1;87.4
27358;BME280;14831;50.474;7.616;2023-05-14T01:11:25;98300;;;9.0;88.1
27358;BME280;14831;50.474;7.616;2023-05-14T01:16:25;98280;;;8.9;88.1
27358;BME280;14831;50.474;7.616;2023-05-14T01:21:26;98290;;;8.9;88.1
27358;BME280;14831;50.474;7.616;2023-05-14T01:26:24;98290;;;8.9;88.1
27358;BME280;14831;50.474;7.616;2023-05-14T01:31:24;98280;;;8.9;88.1
27358;BME280;14831;50.474;7.616;2023-05-14T01:36:24;98280;;;8.9;88.1
27358;BME280;14831;50.474;7.616;2023-05-14T01:41:24;98270;;;8.9;88.1
27358;BME280;14831;50.474;7.616;2023-05-14T01:46:24;98270;;;8.9;88.1
27358;BME280;14831;50.474;7.616;2023-05-14T01:51:24;98270;;;8.9;88.1
27358;BME280;14831;50.474;7.616;2023-05-14T01:56:24;98270;;;8.9;88.1
27358;BME280;14831;50.474;7.616;2023-05-14T02:01:24;98270;;;8.9;88.1
27358;BME280;14831;50.474;7.616;2023-05-14T02:06:24;98270;;;8.9;88.1
27358;BME280;14831;50.474;7.616;2023-05-14T02:11:24;98260;;;8.9;88.1
27358;BME280;14831;50.474;7.616;2023-05-14T02:16:25;98260;;;8.9;88.1
27358;BME280;14831;50.474;7.616;2023-05-14T02:21:24;98250;;;8.9;88.1
27358;BME280;14831;50.474;7.616;2023-05-14T02:26:24;98260;;;8.9;88.1
27358;BME280;14831;50.474;7.616;2023-05-14T02:31:24;98240;;;8.9;88.1
27358;BME280;14831;50.474;7.616;2023-05-14T02:36:24;98250;;;8.9;88.1
27358;BME280;14831;50.474;7.616;2023-05-14T02:41:24;98230;;;8.9;88.1
27358;BME280;14831;50.474;7.616;2023-05-14T02:46:24;98240;;;8.9;88.1
27358;BME280;14831;50.474;7.616;2023-05-14T02:51:24;98240;;;8.9;88.1
27358;BME280;14831;50.474;7.616;2023-05-14T02:56:24;98240;;;8.9;88.1
27358;BME280;14831;50.474;7.616;2023-05-14T03:01:24;98230;;;8.9;88.1
27358;BME280;14831;50.474;7.616;2023-05-14T03:06:24;98230;;;8.9;88.1
27358;BME280;14831;50.474;7.616;2023-05-14T03:11:24;98230;;;8.9;88.1
27358;BME280;14831;50.474;7.616;2023-05-14T03:16:24;98230;;;8.9;88.1
27358;BME280;14831;50.474;7.616;2023-05-14T03:21:24;98230;;;8.9;88.1
27358;BME280;14831;50.474;7.616;2023-05-14T03:26:24;98220;;;8.9;88.1
27358;BME280;14831;50.474;7.616;2023-05-14T03:31:24;98220;;;8.9;88.1
27358;BME280;14831;50.474;7.616;2023-05-14T03:36:24;98220;;;8.9;88.1
27358;BME280;14831;50.474;7.616;2023-05-14T03:41:24;98220;;;8.9;88.1
27358;BME280;14831;50.474;7.616;2023-05-14T03:46:24;98220;;;8.9;88.1
27358;BME280;14831;50.474;7.616;2023-05-14T03:51:24;98230;;;8.9;88.1
27358;BME280;14831;50.474;7.616;2023-05-14T03:56:24;98230;;;8.9;88.1
27358;BME280;14831;50.474;7.616;2023-05-14T04:01:24;98230;;;8.9;88.1
27358;BME280;14831;50.474;7.616;2023-05-14T04:06:24;98220;;;8.9;88.1
27358;BME280;14831;50.474;7.616;2023-05-14T04:11:24;98220;;;8.9;88.1
27358;BME280;14831;50.474;7.616;2023-05-14T04:16:24;98220;;;8.9;88.1
27358;BME280;14831;50.474;7.616;2023-05-14T04:21:24;98220;;;8.9;88.1
27358;BME280;14831;50.474;7.616;2023-05-14T04:26:24;98230;;;8.9;88.1
27358;BME280;14831;50.474;7.616;2023-05-14T04:31:24;98230;;;8.9;88.1
27358;BME280;14831;50.474;7.616;2023-05-14T04:36:24;98230;;;8.9;88.1
27358;BME280;14831;50.474;7.616;2023-05-14T04:41:24;98230;;;8.9;88.1
27358;BME280;14831;50.474;7.616;2023-05-14T04:46:24;98230;;;8.9;88.1
27358;BME280;14831;50.474;7.616;2023-05-14T04:51:24;98230;;;8.9;88.1
27358;BME280;14831;50.474;7.616;2023-05-14T04:56:24;98230;;;8.9;88.1
27358;BME280;14831;50.474;7.616;2023-05-14T05:01:24;98230;;;8.9;88.1
27358;BME280;14831;50.474;7.616;2023-05-14T05:06:24;98230;;;8.9;88.1
27358;BME280;14831;50.474;7.616;2023-05-14T05:11:24;98240;;;8.9;88.1
27358;BME280;14831;50.474;7.616;2023-05-14T05:16:24;98230;;;8.9;88.1
27358;BME280;14831;50.474;7.616;2023-05-14T05:21:24;98240;;;8.9;88.1
27358;BME280;14831;50.474;7.616;2023-05-14T05:26:25;98230;;;8.9;88.1
27358;BME280;14831;50.474;7.616;2023-05-14T05:31:24;98230;;;8.9;88.1
27358;BME280;14831;50.474;7.616;2023-05-14T05:36:24;174080;;;8.9;88.1
27358;BME280;14831;50.474;7.616;2023-05-14T05:41:24;174080;;;8.9;88.1
27358;BME280;14831;50.474;7.616;2023-05-14T05:46:24;174080;;;8.9;88.1
27358;BME280;14831;50.474;7.616;2023-05-14T05:51:24;174080;;;8.9;88.1
27358;BME280;14831;50.474;7.616;2023-05-14T05:56:24;174080;;;8.9;88.1
27358;BME280;14831;50.474;7.616;2023-05-14T06:01:24;174080;;;8.9;88.1
27358;BME280;14831;50.474;7.616;2023-05-14T06:06:24;174080;;;8.9;88.1
27358;BME280;14831;50.474;7.616;2023-05-14T06:11:24;174080;;;8.9;88.1
27358;BME280;14831;50.474;7.616;2023-05-14T06:16:24;174080;;;8.9;88.1
27358;BME280;14831;50.474;7.616;2023-05-14T06:21:24;174080;;;8.9;88.1
27358;BME280;14831;50.474;7.616;2023-05-14T06:26:24;174080;;;8.9;88.1
27358;BME280;14831;50.474;7.616;2023-05-14T06:31:24;174080;;;8.9;88.1
27358;BME280;14831;50.474;7.616;2023-05-14T06:36:24;174080;;;12.3;80.1
27358;BME280;14831;50.474;7.616;2023-05-14T06:41:24;98280;;;12.6;81.3
27358;BME280;14831;50.474;7.616;2023-05-14T06:46:24;98270;;;12.8;78.7
27358;BME280;14831;50.474;7.616;2023-05-14T06:51:24;98280;;;13.7;78.9
27358;BME280;14831;50.474;7.616;2023-05-14T06:56:24;98280;;;13.9;76.3
27358;BME280;14831;50.474;7.616;2023-05-14T07:01:24;98280;;;14.1;73.1
27358;BME280;14831;50.474;7.616;2023-05-14T07:06:24;98280;;;14.3;70.6
27358;BME280;14831;50.474;7.616;2023-05-14T07:11:24;98270;;;14.3;72.4
27358;BME280;14831;50.474;7.616;2023-05-14T07:16:24;98280;;;14.4;71.5
27358;BME280;14831;50.474;7.616;2023-05-14T07:21:24;98290;;;14.2;74.1
27358;BME280;14831;50.474;7.616;2023-05-14T07:26:24;98290;;;14.7;73.9
27358;BME280;14831;50.474;7.616;2023-05-14T07:31:24;98290;;;14.5;72.2
27358;BME280;14831;50.474;7.616;2023-05-14T07:36:24;98290;;;14.6;75.2
27358;BME280;14831;50.474;7.616;2023-05-14T07:41:24;98290;;;14.5;71.2
27358;BME280;14831;50.474;7.616;2023-05-14T07:46:24;98290;;;14.4;73.4
27358;BME280;14831;50.474;7.616;2023-05-14T07:51:24;98290;;;14.2;71.8
27358;BME280;14831;50.474;7.616;2023-05-14T07:56:24;98290;;;14.9;73.5
27358;BME280;14831;50.474;7.616;2023-05-14T08:01:24;98280;;;14.6;71.1
27358;BME280;14831;50.474;7.616;2023-05-14T08:06:24;98290;;;14.5;73.9
27358;BME280;14831;50.474;7.616;2023-05-14T08:11:24;98300;;;14.6;69.6
27358;BME280;14831;50.474;7.616;2023-05-14T08:16:24;98300;;;15.0;70.1
27358;BME280;14831;50.474;7.616;2023-05-14T08:21:24;98300;;;15.3;71.3
27358;BME280;14831;50.474;7.616;2023-05-14T08:26:24;98290;;;15.2;75.5
27358;BME280;14831;50.474;7.616;2023-05-14T08:31:24;98290;;;15.1;67.7
27358;BME280;14831;50.474;7.616;2023-05-14T08:36:24;98290;;;15.4;71.6
27358;BME280;14831;50.474;7.616;2023-05-14T08:41:24;98300;;;15.7;67.7
27358;BME280;14831;50.474;7.616;2023-05-14T08:46:24;98300;;;15.0;71.1
27358;BME280;14831;50.474;7.616;2023-05-14T08:51:24;98290;;;14.7;70.4
27358;BME280;14831;50.474;7.616;2023-05-14T08:56:24;98290;;;15.3;70.5
27358;BME280;14831;50.474;7.616;2023-05-14T09:01:24;98290;;;15.6;69.6
27358;BME280;14831;50.474;7.616;2023-05-14T09:06:25;98280;;;15.4;70.6
27358;BME280;14831;50.474;7.616;2023-05-14T09:11:24;98280;;;15.7;69.3
27358;BME280;14831;50.474;7.616;2023-05-14T09:16:24;98280;;;15.3;68.1
27358;BME280;14831;50.474;7.616;2023-05-14T09:21:24;98280;;;15.4;69.7
27358;BME280;14831;50.474;7.616;2023-05-14T09:26:24;98270;;;15.8;68.5
27358;BME280;14831;50.474;7.616;2023-05-14T09:31:24;98270;;;16.2;68.0
27358;BME280;14831;50.474;7.616;2023-05-14T09:36:24;98270;;;16.0;68.9
27358;BME280;14831;50.474;7.616;2023-05-14T09:41:24;98270;;;16.0;66.2
27358;BME280;14831;50.474;7.616;2023-05-14T09:46:24;98280;;;15.6;68.3
27358;BME280;14831;50.474;7.616;2023-05-14T09:51:24;98270;;;15.7;65.4
27358;BME280;14831;50.474;7.616;2023-05-14T09:56:24;98270;;;16.0;63.3
27358;BME280;14831;50.474;7.616;2023-05-14T10:01:24;98270;;;16.3;64.0
27358;BME280;14831;50.474;7.616;2023-05-14T10:06:24;98270;;;16.7;60.3
27358;BME280;14831;50.474;7.616;2023-05-14T10:11:24;98260;;;16.5;61.5
27358;BME280;14831;50.474;7.616;2023-05-14T10:16:25;98270;;;15.9;62.9
27358;BME280;14831;50.474;7.616;2023-05-14T10:21:24;98250;;;15.7;63.9
27358;BME280;14831;50.474;7.616;2023-05-14T10:26:24;98240;;;16.0;64.9
27358;BME280;14831;50.474;7.616;2023-05-14T10:31:42;98250;;;15.9;61.9
27358;BME280;14831;50.474;7.616;2023-05-14T10:36:24;98250;;;17.1;62.2
27358;BME280;14831;50.474;7.616;2023-05-14T10:41:24;98240;;;17.7;62.5
27358;BME280;14831;50.474;7.616;2023-05-14T10:46:24;98240;;;18.0;60.2
27358;BME280;14831;50.474;7.616;2023-05-14T10:51:24;98230;;;16.7;60.5
27358;BME280;14831;50.474;7.616;2023-05-14T10:56:24;98230;;;16.4;61.5
27358;BME280;14831;50.474;7.616;2023-05-14T11:01:24;98230;;;16.2;60.0
27358;BME280;14831;50.474;7.616;2023-05-14T11:06:24;98220;;;16.7;58.2
27358;BME280;14831;50.474;7.616;2023-05-14T11:11:24;98220;;;17.1;58.5
27358;BME280;14831;50.474;7.616;2023-05-14T11:16:24;98220;;;17.2;57.7
27358;BME280;14831;50.474;7.616;2023-05-14T11:21:24;98200;;;17.2;55.4
27358;BME280;14831;50.474;7.616;2023-05-14T11:26:24;98180;;;17.6;56.7
27358;BME280;14831;50.474;7.616;2023-05-14T11:31:24;98190;;;17.2;58.1
27358;BME280;14831;50.474;7.616;2023-05-14T11:36:24;98200;;;17.6;58.8
27358;BME280;14831;50.474;7.616;2023-05-14T11:41:24;98190;;;18.0;57.2
27358;BME280;14831;50.474;7.616;2023-05-14T11:46:24;98180;;;18.3;54.4
27358;BME280;14831;50.474;7.616;2023-05-14T11:51:24;98180;;;18.6;52.1
27358;BME280;14831;50.474;7.616;2023-05-14T11:56:24;98170;;;18.7;50.4
27358;BME280;14831;50.474;7.616;2023-05-14T12:01:24;98170;;;18.3;52.3
27358;BME280;14831;50.474;7.616;2023-05-14T12:06:29;98170;;;17.8;58.8
27358;BME280;14831;50.474;7.616;2023-05-14T12:11:24;98170;;;17.3;54.0
27358;BME280;14831;50.474;7.616;2023-05-14T12:16:28;98160;;;17.3;54.8
27358;BME280;14831;50.474;7.616;2023-05-14T12:21:25;98160;;;17.4;52.8
27358;BME280;14831;50.474;7.616;2023-05-14T12:26:24;98150;;;17.5;54.4
27358;BME280;14831;50.474;7.616;2023-05-14T12:31:26;98150;;;17.4;52.7
27358;BME280;14831;50.474;7.616;2023-05-14T12:36:25;98130;;;18.0;55.9
27358;BME280;14831;50.474;7.616;2023-05-14T12:41:24;98130;;;19.2;54.3
27358;BME280;14831;50.474;7.616;2023-05-14T12:46:24;98120;;;19.0;47.5
27358;BME280;14831;50.474;7.616;2023-05-14T12:51:24;98120;;;18.7;52.7
27358;BME280;14831;50.474;7.616;2023-05-14T12:56:24;98120;;;18.1;52.0
27358;BME280;14831;50.474;7.616;2023-05-14T13:01:24;98120;;;17.4;53.4
27358;BME280;14831;50.474;7.616;2023-05-14T13:06:24;98130;;;17.1;59.2
27358;BME280;14831;50.474;7.616;2023-05-14T13:11:24;98120;;;16.8;62.3
27358;BME280;14831;50.474;7.616;2023-05-14T13:16:24;98130;;;16.3;70.0
27358;BME280;14831;50.474;7.616;2023-05-14T13:21:24;98130;;;15.2;72.4
27358;BME280;14831;50.474;7.616;2023-05-14T13:26:24;98120;;;15.2;74.7
27358;BME280;14831;50.474;7.616;2023-05-14T13:31:24;98110;;;15.6;74.8
27358;BME280;14831;50.474;7.616;2023-05-14T13:36:24;98100;;;15.7;73.2
27358;BME280;14831;50.474;7.616;2023-05-14T13:41:24;98090;;;16.3;73.2
27358;BME280;14831;50.474;7.616;2023-05-14T13:46:24;98100;;;16.0;69.0
27358;BME280;14831;50.474;7.616;2023-05-14T13:51:24;98100;;;15.7;71.5
27358;BME280;14831;50.474;7.616;2023-05-14T13:56:24;98070;;;15.4;73.6
27358;BME280;14831;50.474;7.616;2023-05-14T14:01:24;98070;;;15.4;72.2
27358;BME280;14831;50.474;7.616;2023-05-14T14:06:24;98080;;;15.7;68.6
27358;BME280;14831;50.474;7.616;2023-05-14T14:11:24;98070;;;15.7;69.9
27358;BME280;14831;50.474;7.616;2023-05-14T14:16:24;98080;;;15.9;73.3
27358;BME280;14831;50.474;7.616;2023-05-14T14:21:24;98090;;;15.4;76.3
27358;BME280;14831;50.474;7.616;2023-05-14T14:26:24;98070;;;15.0;71.6
27358;BME280;14831;50.474;7.616;2023-05-14T14:31:24;98070;;;15.1;73.9
27358;BME280;14831;50.474;7.616;2023-05-14T14:36:24;98050;;;15.7;68.7
27358;BME280;14831;50.474;7.616;2023-05-14T14:41:24;98040;;;16.0;60.6
27358;BME280;14831;50.474;7.616;2023-05-14T14:46:24;98040;;;16.3;60.0
27358;BME280;14831;50.474;7.616;2023-05-14T14:51:24;98030;;;16.5;57.9
27358;BME280;14831;50.474;7.616;2023-05-14T14:56:25;98010;;;16.2;63.2
27358;BME280;14831;50.474;7.616;2023-05-14T15:01:24;98020;;;15.9;60.8
27358;BME280;14831;50.474;7.616;2023-05-14T15:06:24;98030;;;16.2;61.4
27358;BME280;14831;50.474;7.616;2023-05-14T15:11:24;98030;;;16.8;59.4
27358;BME280;14831;50.474;7.616;2023-05-14T15:16:24;98020;;;17.0;53.9
27358;BME280;14831;50.474;7.616;2023-05-14T15:21:24;98010;;;17.1;55.1
27358;BME280;14831;50.474;7.616;2023-05-14T15:26:24;98010;;;17.4;56.4
27358;BME280;14831;50.474;7.616;2023-05-14T15:31:24;98010;;;17.3;55.0
27358;BME280;14831;50.474;7.616;2023-05-14T15:36:24;98000;;;17.5;57.4
27358;BME280;14831;50.474;7.616;2023-05-14T15:41:24;98000;;;17.3;57.8
27358;BME280;14831;50.474;7.616;2023-05-14T15:46:24;98000;;;17.7;55.0
27358;BME280;14831;50.474;7.616;2023-05-14T15:51:24;97990;;;17.8;54.0
27358;BME280;14831;50.474;7.616;2023-05-14T15:56:24;97990;;;17.9;54.9
27358;BME280;14831;50.474;7.616;2023-05-14T16:01:24;98000;;;17.8;50.4
27358;BME280;14831;50.474;7.616;2023-05-14T16:06:24;97990;;;17.9;49.8
27358;BME280;14831;50.474;7.616;2023-05-14T16:11:24;97990;;;17.8;49.6
27358;BME280;14831;50.474;7.616;2023-05-14T16:16:24;98000;;;17.6;50.5
27358;BME280;14831;50.474;7.616;2023-05-14T16:21:24;98010;;;17.5;51.5
27358;BME280;14831;50.474;7.616;2023-05-14T16:26:24;98000;;;17.4;53.6
27358;BME280;14831;50.474;7.616;2023-05-14T16:31:24;98010;;;17.4;52.2
27358;BME280;14831;50.474;7.616;2023-05-14T16:36:24;98000;;;17.2;53.1
27358;BME280;14831;50.474;7.616;2023-05-14T16:41:24;98010;;;17.2;53.5
27358;BME280;14831;50.474;7.616;2023-05-14T16:46:24;98020;;;17.0;56.4
27358;BME280;14831;50.474;7.616;2023-05-14T16:51:24;98020;;;16.4;58.9
27358;BME280;14831;50.474;7.616;2023-05-14T16:56:24;98010;;;15.9;63.5
27358;BME280;14831;50.474;7.616;2023-05-14T17:01:24;98030;;;16.0;64.1
27358;BME280;14831;50.474;7.616;2023-05-14T17:06:24;98030;;;15.7;62.4
27358;BME280;14831;50.474;7.616;2023-05-14T17:11:24;98030;;;15.4;63.9
27358;BME280;14831;50.474;7.616;2023-05-14T17:16:24;98020;;;15.2;63.0
27358;BME280;14831;50.474;7.616;2023-05-14T17:21:24;98030;;;15.1;64.4
27358;BME280;14831;50.474;7.616;2023-05-14T17:26:25;98030;;;14.9;64.8
27358;BME280;14831;50.474;7.616;2023-05-14T17:31:24;98010;;;14.7;64.2
27358;BME280;14831;50.474;7.616;2023-05-14T17:36:24;98000;;;14.8;64.1
27358;BME280;14831;50.474;7.616;2023-05-14T17:41:24;98000;;;14.8;64.4
27358;BME280;14831;50.474;7.616;2023-05-14T17:46:24;98000;;;14.7;64.5
27358;BME280;14831;50.474;7.616;2023-05-14T17:51:24;98000;;;14.7;67.7
27358;BME280;14831;50.474;7.616;2023-05-14T17:56:24;98020;;;14.6;67.1
27358;BME280;14831;50.474;7.616;2023-05-14T18:01:24;98000;;;14.6;67.6
27358;BME280;14831;50.474;7.616;2023-05-14T18:06:24;98010;;;14.7;66.6
27358;BME280;14831;50.474;7.616;2023-05-14T18:11:24;98020;;;14.5;70.0
27358;BME280;14831;50.474;7.616;2023-05-14T18:16:25;98030;;;14.3;68.1
27358;BME280;14831;50.474;7.616;2023-05-14T18:21:24;98040;;;14.3;67.9
27358;BME280;14831;50.474;7.616;2023-05-14T18:26:24;98040;;;14.1;69.9
27358;BME280;14831;50.474;7.616;2023-05-14T18:31:24;98050;;;13.9;71.6
27358;BME280;14831;50.474;7.616;2023-05-14T18:36:24;98040;;;13.7;72.7
27358;BME280;14831;50.474;7.616;2023-05-14T18:41:24;98030;;;13.5;73.2
27358;BME280;14831;50.474;7.616;2023-05-14T18:46:24;98030;;;13.4;73.7
27358;BME280;14831;50.474;7.616;2023-05-14T18:51:24;98040;;;13.3;74.4
27358;BME280;14831;50.474;7.616;2023-05-14T18:56:24;98040;;;13.3;74.7
27358;BME280;14831;50.474;7.616;2023-05-14T19:01:24;98040;;;13.2;74.8
27358;BME280;14831;50.474;7.616;2023-05-14T19:06:25;98040;;;13.2;73.4
27358;BME280;14831;50.474;7.616;2023-05-14T19:11:24;98060;;;13.2;74.2
27358;BME280;14831;50.474;7.616;2023-05-14T19:16:24;98050;;;13.1;75.1
27358;BME280;14831;50.474;7.616;2023-05-14T19:21:24;98050;;;13.0;75.7
27358;BME280;14831;50.474;7.616;2023-05-14T19:26:24;98050;;;12.9;76.2
27358;BME280;14831;50.474;7.616;2023-05-14T19:31:24;98060;;;12.8;76.9
27358;BME280;14831;50.474;7.616;2023-05-14T19:36:24;98050;;;12.8;77.4
27358;BME280;14831;50.474;7.616;2023-05-14T19:41:24;98060;;;12.6;78.9
27358;BME280;14831;50.474;7.616;2023-05-14T19:46:24;98060;;;12.5;79.4
27358;BME280;14831;50.474;7.616;2023-05-14T19:51:24;98070;;;12.4;79.9
27358;BME280;14831;50.474;7.616;2023-05-14T19:56:24;98050;;;12.5;79.1
27358;BME280;14831;50.474;7.616;2023-05-14T20:01:24;98050;;;12.4;79.1
27358;BME280;14831;50.474;7.616;2023-05-14T20:06:24;98050;;;12.3;79.9
27358;BME280;14831;50.474;7.616;2023-05-14T20:11:24;98040;;;12.0;82.5
27358;BME280;14831;50.474;7.616;2023-05-14T20:16:24;98040;;;12.0;81.9
27358;BME280;14831;50.474;7.616;2023-05-14T20:21:24;98030;;;12.2;78.9
27358;BME280;14831;50.474;7.616;2023-05-14T20:26:24;98030;;;12.2;78.8
27358;BME280;14831;50.474;7.616;2023-05-14T20:31:24;98020;;;12.3;78.0
27358;BME280;14831;50.474;7.616;2023-05-14T20:36:24;98000;;;12.3;77.6
27358;BME280;14831;50.474;7.616;2023-05-14T20:41:24;98000;;;12.4;78.0
27358;BME280;14831;50.474;7.616;2023-05-14T20:46:24;98000;;;12.5;77.2
27358;BME280;14831;50.474;7.616;2023-05-14T20:51:24;97990;;;12.5;77.5
27358;BME280;14831;50.474;7.616;2023-05-14T20:56:24;97990;;;12.5;78.3
27358;BME280;14831;50.474;7.616;2023-05-14T21:01:24;97990;;;12.4;79.6
27358;BME280;14831;50.474;7.616;2023-05-14T21:06:24;97980;;;12.2;80.4
27358;BME280;14831;50.474;7.616;2023-05-14T21:11:24;97980;;;12.1;78.8
27358;BME280;14831;50.474;7.616;2023-05-14T21:16:24;97980;;;12.3;78.0
27358;BME280;14831;50.474;7.616;2023-05-14T21:21:24;97990;;;12.3;78.7
27358;BME280;14831;50.474;7.616;2023-05-14T21:26:24;97980;;;12.3;78.6
27358;BME280;14831;50.474;7.616;2023-05-14T21:31:24;97990;;;12.3;78.2
27358;BME280;14831;50.474;7.616;2023-05-14T21:36:24;97980;;;12.4;77.9
27358;BME280;14831;50.474;7.616;2023-05-14T21:41:24;97980;;;12.4;76.7
27358;BME280;14831;50.474;7.616;2023-05-14T21:46:24;97980;;;12.4;77.6
27358;BME280;14831;50.474;7.616;2023-05-14T21:51:24;97980;;;12.3;77.3
27358;BME280;14831;50.474;7.616;2023-05-14T21:56:24;97970;;;12.3;76.6
27358;BME280;14831;50.474;7.616;2023-05-14T22:01:24;97970;;;12.5;74.7
27358;BME280;14831;50.474;7.616;2023-05-14T22:06:24;97980;;;12.5;75.0
27358;BME280;14831;50.474;7.616;2023-05-14T22:11:24;97980;;;12.3;75.6
27358;BME280;14831;50.474;7.616;2023-05-14T22:16:24;97970;;;12.2;77.2
27358;BME280;14831;50.474;7.616;2023-05-14T22:21:24;97960;;;12.1;77.4
27358;BME280;14831;50.474;7.616;2023-05-14T22:26:24;97960;;;12.1;76.8
27358;BME280;14831;50.474;7.616;2023-05-14T22:31:24;97960;;;12.1;76.3
27358;BME280;14831;50.474;7.616;2023-05-14T22:36:24;97970;;;12.1;76.7
27358;BME280;14831;50.474;7.616;2023-05-14T22:41:24;97960;;;11.9;78.0
27358;BME280;14831;50.474;7.616;2023-05-14T22:46:24;97960;;;11.6;79.9
27358;BME280;14831;50.474;7.616;2023-05-14T22:51:24;97960;;;11.4;82.2
27358;BME280;14831;50.474;7.616;2023-05-14T22:56:24;97950;;;11.1;82.4
27358;BME280;14831;50.474;7.616;2023-05-14T23:01:24;97950;;;10.8;82.6
27358;BME280;14831;50.474;7.616;2023-05-14T23:06:24;97950;;;10.5;84.1
27358;BME280;14831;50.474;7.616;2023-05-14T23:11:24;97950;;;10.3;85.1
27358;BME280;14831;50.474;7.616;2023-05-14T23:16:24;97940;;;10.1;86.3
27358;BME280;14831;50.474;7.616;2023-05-14T23:21:24;97940;;;9.8;86.2
27358;BME280;14831;50.474;7.616;2023-05-14T23:26:24;97930;;;9.7;87.9
27358;BME280;14831;50.474;7.616;2023-05-14T23:31:24;97920;;;9.5;88.2
27358;BME280;14831;50.474;7.616;2023-05-14T23:36:24;97920;;;9.5;88.7
27358;BME280;14831;50.474;7.616;2023-05-14T23:41:24;97930;;;9.5;89.3
27358;BME280;14831;50.474;7.616;2023-05-14T23:46:25;97910;;;9.5;88.6
27358;BME280;14831;50.474;7.616;2023-05-14T23:51:25;97910;;;9.4;89.0
27358;BME280;14831;50.474;7.616;2023-05-14T23:56:24;97910;;;9.5;89.0
